createdAt,value
2022-11-05T00:02:00.077Z,30.73
2022-11-05T00:04:45.110Z,32.72
2022-11-05T00:07:40.598Z,31.42
2022-11-05T00:10:16.506Z,36.08
2022-11-05T00:13:01.500Z,34.17
2022-11-05T00:15:46.475Z,35.13
2022-11-05T00:18:13.123Z,39.13
2022-11-05T00:20:39.805Z,32.88
2022-11-05T00:23:25.168Z,37.20
2022-11-05T00:25:58.755Z,32.75
2022-11-05T00:28:26.633Z,41.15
2022-11-05T00:30:54.073Z,32.30
2022-11-05T00:33:21.001Z,41.13
2022-11-05T00:35:47.606Z,33.85
2022-11-05T00:38:14.230Z,33.20
2022-11-05T00:40:40.865Z,35.60
2022-11-05T00:43:26.303Z,37.90
2022-11-05T00:45:52.858Z,32.35
2022-11-05T00:48:38.066Z,37.30
2022-11-05T00:51:04.873Z,34.58
2022-11-05T00:53:31.470Z,32.20
2022-11-05T00:55:58.373Z,35.95
2022-11-05T00:58:25.019Z,31.95
2022-11-05T01:00:54.665Z,33.85
2022-11-05T01:03:30.047Z,36.80
2022-11-05T01:05:59.321Z,30.27
2022-11-05T01:08:27.689Z,37.78
2022-11-05T01:10:57.550Z,31.45
2022-11-05T01:13:33.234Z,31.90
2022-11-05T01:16:07.054Z,33.85
2022-11-05T01:18:34.014Z,31.35
2022-11-05T01:21:00.563Z,32.50
2022-11-05T01:23:28.865Z,35.58
2022-11-05T01:25:58.539Z,32.13
2022-11-05T01:28:25.178Z,32.17
2022-11-05T01:30:55.952Z,35.45
2022-11-05T01:33:22.469Z,37.13
2022-11-05T01:35:51.778Z,32.08
2022-11-05T01:38:19.410Z,32.95
2022-11-05T01:40:46.284Z,37.00
2022-11-05T01:43:23.511Z,38.65
2022-11-05T01:45:53.244Z,32.88
2022-11-05T01:48:34.974Z,33.95
2022-11-05T01:51:06.630Z,36.70
2022-11-05T01:53:44.491Z,37.63
2022-11-05T01:56:17.306Z,32.92
2022-11-05T01:58:54.367Z,33.30
2022-11-05T02:01:21.092Z,41.95
2022-11-05T02:03:50.647Z,35.60
2022-11-05T02:06:17.736Z,37.05
2022-11-05T02:09:08.463Z,36.22
2022-11-05T02:11:35.248Z,43.00
2022-11-05T02:14:01.803Z,36.38
2022-11-05T02:16:46.960Z,42.20
2022-11-05T02:19:47.664Z,37.70
2022-11-05T02:22:57.925Z,37.70
2022-11-05T02:25:43.088Z,32.83
2022-11-05T02:28:51.890Z,39.97
2022-11-05T02:31:43.237Z,47.38
2022-11-05T02:34:48.036Z,39.80
2022-11-05T02:37:49.652Z,38.63
2022-11-05T02:40:34.090Z,38.78
2022-11-05T02:43:18.787Z,36.28
2022-11-05T02:45:54.463Z,37.15
2022-11-05T02:48:35.705Z,38.63
2022-11-05T02:51:09.023Z,38.28
2022-11-05T02:53:58.389Z,43.08
2022-11-05T02:56:30.545Z,38.45
2022-11-05T02:58:57.122Z,38.60
2022-11-05T03:01:23.727Z,39.13
2022-11-05T03:03:58.612Z,39.15
2022-11-05T03:06:52.067Z,41.28
2022-11-05T03:09:27.885Z,37.92
2022-11-05T03:12:30.758Z,42.92
2022-11-05T03:15:03.343Z,36.65
2022-11-05T03:17:38.773Z,35.80
2022-11-05T03:20:27.291Z,36.63
2022-11-05T03:23:14.854Z,42.75
2022-11-05T03:25:49.836Z,43.88
2022-11-05T03:28:19.966Z,40.45
2022-11-05T03:30:50.334Z,43.20
2022-11-05T03:33:25.423Z,37.25
2022-11-05T03:36:00.084Z,43.50
2022-11-05T03:38:34.906Z,39.72
2022-11-05T03:41:06.374Z,38.17
2022-11-05T03:43:37.027Z,41.90
2022-11-05T03:46:12.411Z,42.78
2022-11-05T03:48:44.352Z,40.50
2022-11-05T03:51:27.570Z,40.63
2022-11-05T03:53:57.623Z,40.58
2022-11-05T03:56:31.212Z,46.17
2022-11-05T03:59:00.562Z,39.15
2022-11-05T04:01:28.244Z,38.72
2022-11-05T04:03:55.070Z,42.33
2022-11-05T04:06:40.109Z,41.20
2022-11-05T04:09:25.634Z,39.00
2022-11-05T04:12:10.756Z,37.90
2022-11-05T04:14:37.308Z,39.88
2022-11-05T04:17:06.933Z,37.17
2022-11-05T04:19:56.234Z,33.88
2022-11-05T04:22:42.999Z,34.63
2022-11-05T04:25:10.457Z,37.88
2022-11-05T04:27:37.413Z,31.73
2022-11-05T04:30:19.909Z,32.50
2022-11-05T04:33:06.269Z,35.50
2022-11-05T04:35:36.833Z,38.03
2022-11-05T04:38:05.102Z,37.92
2022-11-05T04:40:32.099Z,35.83
2022-11-05T04:42:59.354Z,39.92
2022-11-05T04:45:28.447Z,36.67
2022-11-05T04:47:55.236Z,37.75
2022-11-05T04:50:22.230Z,37.10
2022-11-05T04:52:49.158Z,36.83
2022-11-05T04:55:16.063Z,38.10
2022-11-05T04:57:42.665Z,34.08
2022-11-05T05:00:11.432Z,32.53
2022-11-05T05:02:38.056Z,43.78
2022-11-05T05:05:05.351Z,41.08
2022-11-05T05:07:33.150Z,39.78
2022-11-05T05:10:03.594Z,38.60
2022-11-05T05:12:30.418Z,40.78
2022-11-05T05:14:56.994Z,38.78
2022-11-05T05:17:23.751Z,42.15
2022-11-05T05:20:08.963Z,36.67
2022-11-05T05:22:35.575Z,37.90
2022-11-05T05:25:02.800Z,35.00
2022-11-05T05:27:30.188Z,34.35
2022-11-05T05:29:58.031Z,33.00
2022-11-05T05:32:25.514Z,34.00
2022-11-05T05:34:53.048Z,34.85
2022-11-05T05:37:20.170Z,40.08
2022-11-05T05:39:47.881Z,35.65
2022-11-05T05:42:14.853Z,36.88
2022-11-05T05:44:41.448Z,36.72
2022-11-05T05:47:07.975Z,37.28
2022-11-05T05:49:34.690Z,37.22
2022-11-05T05:52:01.329Z,40.83
2022-11-05T05:54:32.643Z,31.80
2022-11-05T05:56:59.556Z,43.22
2022-11-05T05:59:26.170Z,37.00
2022-11-05T06:01:53.429Z,39.75
2022-11-05T06:04:20.849Z,35.08
2022-11-05T06:06:47.700Z,36.65
2022-11-05T06:09:14.929Z,41.08
2022-11-05T06:11:41.828Z,39.28
2022-11-05T06:14:13.032Z,48.25
2022-11-05T06:16:40.304Z,42.72
2022-11-05T06:19:07.729Z,37.22
2022-11-05T06:21:34.745Z,36.65
2022-11-05T06:24:04.672Z,37.05
2022-11-05T06:26:31.414Z,31.02
2022-11-05T06:28:57.990Z,33.17
2022-11-05T06:31:24.672Z,30.20
2022-11-05T06:33:51.490Z,32.70
2022-11-05T06:36:19.565Z,31.23
2022-11-05T06:38:46.558Z,32.05
2022-11-05T06:41:13.218Z,35.10
2022-11-05T06:43:40.256Z,29.60
2022-11-05T06:46:07.820Z,36.53
2022-11-05T06:48:34.612Z,29.10
2022-11-05T06:51:01.233Z,28.98
2022-11-05T06:53:29.557Z,29.10
2022-11-05T06:55:56.226Z,29.85
2022-11-05T06:58:22.813Z,30.10
2022-11-05T07:00:50.158Z,28.58
2022-11-05T07:03:16.817Z,28.02
2022-11-05T07:05:48.081Z,32.63
2022-11-05T07:08:15.458Z,32.13
2022-11-05T07:10:42.272Z,28.08
2022-11-05T07:13:09.329Z,29.92
2022-11-05T07:15:37.125Z,29.10
2022-11-05T07:18:04.606Z,33.60
2022-11-05T07:20:34.359Z,32.30
2022-11-05T07:23:12.152Z,27.08
2022-11-05T07:25:39.999Z,30.88
2022-11-05T07:28:06.973Z,35.88
2022-11-05T07:30:34.693Z,31.85
2022-11-05T07:33:01.492Z,28.50
2022-11-05T07:35:28.642Z,29.42
2022-11-05T07:37:55.863Z,29.38
2022-11-05T07:40:25.522Z,29.00
2022-11-05T07:42:57.617Z,27.52
2022-11-05T07:45:25.432Z,30.00
2022-11-05T07:47:54.821Z,24.20
2022-11-05T07:50:23.816Z,24.90
2022-11-05T07:52:50.849Z,27.95
2022-11-05T07:55:19.621Z,25.30
2022-11-05T07:57:48.534Z,26.50
2022-11-05T08:00:17.771Z,24.98
2022-11-05T08:02:44.653Z,27.25
2022-11-05T08:05:11.373Z,25.45
2022-11-05T08:07:38.038Z,28.73
2022-11-05T08:10:05.224Z,24.42
2022-11-05T08:12:32.452Z,23.15
2022-11-05T08:14:59.260Z,28.30
2022-11-05T08:17:26.114Z,26.02
2022-11-05T08:19:52.869Z,31.48
2022-11-05T08:22:19.574Z,24.73
2022-11-05T08:24:46.127Z,28.65
2022-11-05T08:27:12.779Z,32.85
2022-11-05T08:29:39.485Z,28.88
2022-11-05T08:32:06.135Z,30.83
2022-11-05T08:34:32.818Z,27.13
2022-11-05T08:37:01.373Z,31.73
2022-11-05T08:39:28.170Z,30.58
2022-11-05T08:41:54.882Z,22.73
2022-11-05T08:44:21.574Z,23.30
2022-11-05T08:46:48.460Z,26.13
2022-11-05T08:49:15.004Z,22.20
2022-11-05T08:51:43.307Z,22.48
2022-11-05T08:54:09.933Z,22.40
2022-11-05T08:56:36.731Z,22.92
2022-11-05T08:59:03.373Z,23.60
2022-11-05T09:01:30.259Z,19.30
2022-11-05T09:03:56.939Z,19.38
2022-11-05T09:06:23.557Z,18.75
2022-11-05T09:08:50.075Z,20.58
2022-11-05T09:11:18.197Z,22.05
2022-11-05T09:13:44.832Z,19.23
2022-11-05T09:16:23.159Z,21.27
2022-11-05T09:18:50.357Z,19.95
2022-11-05T09:21:18.561Z,18.42
2022-11-05T09:23:46.793Z,22.10
2022-11-05T09:26:14.292Z,22.15
2022-11-05T09:28:41.142Z,19.02
2022-11-05T09:31:09.463Z,21.20
2022-11-05T09:33:37.999Z,20.35
2022-11-05T09:36:05.473Z,21.25
2022-11-05T09:38:33.153Z,18.33
2022-11-05T09:41:20.092Z,21.00
2022-11-05T09:43:53.888Z,19.83
2022-11-05T09:46:24.527Z,22.10
2022-11-05T09:49:05.985Z,15.95
2022-11-05T09:51:33.409Z,18.45
2022-11-05T09:54:00.681Z,22.48
2022-11-05T09:56:30.953Z,19.98
2022-11-05T09:59:03.750Z,17.88
2022-11-05T10:01:38.427Z,19.55
2022-11-05T10:04:14.329Z,14.48
2022-11-05T10:06:48.730Z,14.43
2022-11-05T10:09:19.730Z,17.50
2022-11-05T10:11:57.274Z,19.85
2022-11-05T10:14:29.278Z,16.42
2022-11-05T10:17:03.791Z,15.43
2022-11-05T10:20:02.423Z,17.35
2022-11-05T10:22:29.069Z,15.32
2022-11-05T10:24:56.003Z,16.80
2022-11-05T10:27:27.987Z,14.05
2022-11-05T10:29:55.114Z,17.83
2022-11-05T10:32:32.226Z,15.35
2022-11-05T10:35:01.210Z,17.75
2022-11-05T10:37:29.045Z,18.13
2022-11-05T10:39:55.773Z,17.67
2022-11-05T10:42:57.253Z,18.02
2022-11-05T10:45:50.418Z,15.55
2022-11-05T10:48:19.721Z,17.58
2022-11-05T10:50:46.519Z,15.20
2022-11-05T10:53:35.549Z,14.60
2022-11-05T10:56:02.605Z,14.65
2022-11-05T10:58:32.075Z,18.23
2022-11-05T11:00:58.812Z,16.92
2022-11-05T11:03:37.603Z,17.95
2022-11-05T11:06:19.784Z,18.40
2022-11-05T11:08:48.648Z,17.15
2022-11-05T11:11:32.118Z,13.73
2022-11-05T11:14:12.275Z,19.23
2022-11-05T11:16:41.742Z,21.65
2022-11-05T11:19:20.411Z,12.88
2022-11-05T11:21:54.535Z,16.35
2022-11-05T11:24:23.309Z,13.32
2022-11-05T11:26:49.901Z,16.55
2022-11-05T11:29:25.615Z,14.07
2022-11-05T11:31:59.610Z,18.10
2022-11-05T11:34:35.347Z,15.70
2022-11-05T11:37:15.323Z,12.32
2022-11-05T11:39:49.745Z,11.20
2022-11-05T11:42:30.257Z,12.15
2022-11-05T11:44:59.979Z,20.55
2022-11-05T11:47:29.175Z,14.82
2022-11-05T11:49:58.198Z,13.55
2022-11-05T11:52:35.879Z,18.02
2022-11-05T11:55:11.586Z,15.63
2022-11-05T11:57:45.619Z,11.60
2022-11-05T12:00:13.316Z,19.45
2022-11-05T12:02:45.890Z,17.10
2022-11-05T12:05:12.528Z,15.85
2022-11-05T12:07:49.447Z,13.60
2022-11-05T12:10:23.591Z,15.77
2022-11-05T12:12:56.334Z,21.23
2022-11-05T12:15:55.507Z,17.67
2022-11-05T12:18:26.170Z,16.48
2022-11-05T12:21:03.451Z,18.95
2022-11-05T12:23:35.930Z,17.13
2022-11-05T12:26:20.784Z,19.00
2022-11-05T12:29:16.685Z,18.40
2022-11-05T12:31:52.354Z,14.32
2022-11-05T12:34:44.703Z,14.18
2022-11-05T12:37:23.392Z,14.02
2022-11-05T12:40:17.674Z,19.42
2022-11-05T12:42:47.203Z,14.73
2022-11-05T12:45:41.773Z,16.25
2022-11-05T12:48:44.348Z,19.88
2022-11-05T12:51:14.070Z,18.67
2022-11-05T12:53:50.844Z,23.77
2022-11-05T12:56:31.081Z,14.80
2022-11-05T12:59:06.394Z,18.13
2022-11-05T13:01:39.085Z,14.85
2022-11-05T13:04:15.722Z,14.60
2022-11-05T13:06:47.645Z,19.52
2022-11-05T13:09:21.801Z,14.43
2022-11-05T13:11:59.583Z,19.33
2022-11-05T13:14:42.506Z,22.42
2022-11-05T13:17:23.551Z,15.65
2022-11-05T13:19:57.114Z,19.45
2022-11-05T13:22:35.774Z,16.92
2022-11-05T13:25:23.350Z,19.27
2022-11-05T13:28:29.096Z,23.67
2022-11-05T13:31:01.555Z,21.10
2022-11-05T13:33:33.435Z,17.25
2022-11-05T13:36:30.872Z,18.52
2022-11-05T13:39:09.405Z,16.35
2022-11-05T13:42:14.513Z,15.55
2022-11-05T13:44:48.234Z,20.00
2022-11-05T13:47:14.742Z,15.50
2022-11-05T13:49:44.204Z,16.02
2022-11-05T13:52:34.641Z,14.38
2022-11-05T13:55:18.777Z,10.50
2022-11-05T13:58:14.494Z,19.77
2022-11-05T14:01:07.659Z,17.77
2022-11-05T14:03:34.374Z,18.10
2022-11-05T14:06:07.689Z,19.52
2022-11-05T14:08:40.244Z,18.02
2022-11-05T14:11:24.103Z,17.40
2022-11-05T14:13:56.415Z,14.65
2022-11-05T14:16:26.332Z,16.75
2022-11-05T14:19:17.939Z,11.65
2022-11-05T14:21:51.803Z,15.38
2022-11-05T14:24:21.313Z,19.60
2022-11-05T14:27:02.810Z,17.45
2022-11-05T14:29:44.534Z,23.60
2022-11-05T14:32:17.221Z,29.70
2022-11-05T14:34:47.242Z,31.20
2022-11-05T14:37:13.776Z,26.33
2022-11-05T14:39:41.235Z,23.73
2022-11-05T14:42:16.510Z,20.80
2022-11-05T14:45:14.147Z,22.88
2022-11-05T14:47:44.725Z,18.60
2022-11-05T14:50:30.207Z,30.45
2022-11-05T14:52:59.793Z,17.88
2022-11-05T14:55:36.625Z,24.60
2022-11-05T14:58:42.901Z,20.10
2022-11-05T15:01:32.607Z,20.95
2022-11-05T15:04:32.343Z,20.17
2022-11-05T15:07:02.012Z,24.00
2022-11-05T15:09:49.019Z,20.95
2022-11-05T15:12:25.265Z,22.98
2022-11-05T15:15:22.988Z,24.45
2022-11-05T15:18:03.790Z,25.52
2022-11-05T15:20:41.531Z,25.35
2022-11-05T15:23:13.421Z,22.42
2022-11-05T15:26:00.161Z,30.90
2022-11-05T15:28:37.929Z,23.80
2022-11-05T15:31:13.307Z,19.50
2022-11-05T15:33:45.252Z,24.88
2022-11-05T15:36:25.747Z,30.65
2022-11-05T15:39:23.030Z,30.58
2022-11-05T15:41:40.286Z,22.77
2022-11-05T15:44:30.629Z,24.42
2022-11-05T15:47:30.708Z,24.67
2022-11-05T15:49:58.768Z,22.23
2022-11-05T15:52:42.335Z,30.42
2022-11-05T15:55:11.950Z,24.90
2022-11-05T15:57:47.833Z,23.95
2022-11-05T16:00:22.030Z,25.23
2022-11-05T16:03:02.233Z,24.45
2022-11-05T16:05:32.395Z,25.42
2022-11-05T16:08:00.851Z,29.00
2022-11-05T16:10:34.645Z,22.98
2022-11-05T16:13:28.873Z,24.35
2022-11-05T16:15:57.726Z,24.10
2022-11-05T16:18:30.447Z,23.58
2022-11-05T16:21:08.188Z,25.63
2022-11-05T16:23:45.169Z,20.60
2022-11-05T16:29:53.193Z,21.48
2022-11-05T16:32:29.915Z,24.50
2022-11-05T16:35:03.597Z,20.73
2022-11-05T16:37:41.238Z,21.27
2022-11-05T16:40:18.224Z,20.08
2022-11-05T16:42:48.569Z,26.17
2022-11-05T16:45:17.428Z,25.92
2022-11-05T16:47:45.128Z,24.60
2022-11-05T16:50:32.402Z,26.63
2022-11-05T16:52:59.363Z,24.85
2022-11-05T16:55:26.070Z,30.20
2022-11-05T16:57:54.711Z,24.33
2022-11-05T17:00:22.681Z,25.48
2022-11-05T17:02:50.222Z,23.27
2022-11-05T17:05:28.832Z,30.13
2022-11-05T17:07:56.406Z,24.27
2022-11-05T17:10:24.921Z,21.45
2022-11-05T17:12:51.994Z,27.30
2022-11-05T17:15:36.751Z,23.45
2022-11-05T17:18:05.494Z,25.63
2022-11-05T17:20:48.604Z,25.60
2022-11-05T17:23:18.638Z,25.33
2022-11-05T17:25:48.534Z,23.67
2022-11-05T17:28:16.578Z,25.98
2022-11-05T17:30:47.875Z,21.60
2022-11-05T17:33:18.462Z,18.98
2022-11-05T17:35:45.374Z,20.92
2022-11-05T17:38:12.807Z,21.42
2022-11-05T17:40:39.993Z,18.73
2022-11-05T17:43:07.385Z,19.23
2022-11-05T17:45:34.065Z,33.85
2022-11-05T17:48:03.346Z,35.55
2022-11-05T17:50:30.252Z,41.50
2022-11-05T17:52:56.877Z,34.20
2022-11-05T17:55:23.531Z,39.47
2022-11-05T17:57:51.862Z,42.40
2022-11-05T18:00:22.441Z,34.42
2022-11-05T18:02:50.411Z,37.47
2022-11-05T18:05:18.072Z,38.55
2022-11-05T18:07:45.752Z,37.17
2022-11-05T18:10:13.102Z,30.77
2022-11-05T18:12:40.672Z,31.65
2022-11-05T18:15:08.389Z,32.67
2022-11-05T18:17:35.021Z,32.47
2022-11-05T18:20:01.993Z,32.83
2022-11-05T18:22:28.666Z,34.45
2022-11-05T18:24:55.351Z,32.10
2022-11-05T18:27:24.771Z,27.08
2022-11-05T18:29:51.380Z,29.08
2022-11-05T18:32:18.061Z,33.63
2022-11-05T18:34:44.731Z,29.17
2022-11-05T18:37:11.320Z,35.65
2022-11-05T18:39:38.259Z,32.78
2022-11-05T18:42:05.120Z,35.85
2022-11-05T18:44:37.799Z,30.33
2022-11-05T18:47:06.934Z,38.38
2022-11-05T18:49:34.024Z,30.70
2022-11-05T18:52:00.665Z,29.75
2022-11-05T18:54:27.339Z,25.70
2022-11-05T18:56:54.042Z,27.27
2022-11-05T18:59:39.148Z,31.17
2022-11-05T19:02:08.706Z,24.70
2022-11-05T19:04:36.689Z,36.30
2022-11-05T19:07:05.485Z,29.50
2022-11-05T19:09:36.522Z,36.80
2022-11-05T19:12:03.876Z,35.15
2022-11-05T19:14:31.050Z,44.33
2022-11-05T19:16:58.890Z,35.25
2022-11-05T19:19:26.243Z,29.55
2022-11-05T19:21:53.305Z,30.83
2022-11-05T19:24:20.367Z,32.42
2022-11-05T19:26:47.650Z,31.90
2022-11-05T19:29:15.270Z,26.95
2022-11-05T19:31:42.130Z,24.90
2022-11-05T19:34:08.866Z,23.20
2022-11-05T19:36:35.394Z,23.38
2022-11-05T19:39:09.101Z,21.05
2022-11-05T19:41:35.965Z,24.67
2022-11-05T19:44:02.897Z,24.02
2022-11-05T19:46:31.205Z,28.55
2022-11-05T19:48:59.163Z,24.15
2022-11-05T19:51:27.881Z,25.02
2022-11-05T19:53:55.374Z,25.02
2022-11-05T19:56:28.265Z,22.77
2022-11-05T19:58:54.998Z,27.45
2022-11-05T20:01:23.148Z,29.30
2022-11-05T20:03:50.443Z,25.52
2022-11-05T20:06:21.139Z,28.10
2022-11-05T20:09:15.172Z,29.67
2022-11-05T20:11:38.014Z,27.67
2022-11-05T20:14:05.114Z,31.02
2022-11-05T20:16:38.101Z,36.58
2022-11-05T20:19:07.036Z,34.25
2022-11-05T20:21:34.743Z,38.08
2022-11-05T20:24:02.738Z,34.20
2022-11-05T20:26:29.786Z,38.30
2022-11-05T20:28:56.485Z,42.42
2022-11-05T20:31:23.193Z,44.42
2022-11-05T20:33:49.834Z,38.30
2022-11-05T20:36:18.465Z,41.65
2022-11-05T20:38:53.373Z,38.83
2022-11-05T20:41:19.997Z,42.83
2022-11-05T20:43:47.994Z,47.22
2022-11-05T20:46:17.924Z,47.47
2022-11-05T20:48:45.391Z,43.80
2022-11-05T20:51:17.727Z,46.25
2022-11-05T20:53:46.041Z,48.28
2022-11-05T20:56:32.868Z,43.83
2022-11-05T20:59:00.560Z,42.28
2022-11-05T21:01:30.164Z,48.10
2022-11-05T21:03:57.177Z,46.15
2022-11-05T21:06:24.129Z,49.25
2022-11-05T21:08:52.022Z,44.80
2022-11-05T21:11:19.508Z,51.78
2022-11-05T21:13:46.505Z,48.95
2022-11-05T21:16:18.023Z,52.83
2022-11-05T21:18:46.224Z,51.00
2022-11-05T21:21:17.224Z,54.13
2022-11-05T21:23:43.968Z,57.35
2022-11-05T21:26:13.325Z,53.83
2022-11-05T21:28:42.142Z,53.90
2022-11-05T21:31:09.740Z,49.25
2022-11-05T21:33:36.791Z,55.28
2022-11-05T21:36:12.011Z,56.72
2022-11-05T21:38:39.627Z,51.03
2022-11-05T21:41:07.834Z,48.17
2022-11-05T21:43:34.809Z,43.58
2022-11-05T21:46:02.844Z,51.35
2022-11-05T21:48:30.272Z,46.10
2022-11-05T21:51:15.627Z,38.55
2022-11-05T21:54:00.803Z,43.95
2022-11-05T21:56:46.978Z,47.85
2022-11-05T21:59:35.541Z,45.20
2022-11-05T22:02:02.702Z,48.05
2022-11-05T22:04:35.823Z,41.65
2022-11-05T22:07:02.930Z,38.17
2022-11-05T22:09:29.773Z,42.05
2022-11-05T22:11:56.418Z,41.92
2022-11-05T22:14:24.119Z,37.13
2022-11-05T22:16:51.010Z,35.03
2022-11-05T22:19:17.933Z,35.00
2022-11-05T22:21:44.672Z,39.30
2022-11-05T22:24:11.785Z,34.70
2022-11-05T22:26:39.106Z,32.83
2022-11-05T22:29:06.589Z,33.00
2022-11-05T22:31:36.164Z,33.20
2022-11-05T22:34:04.361Z,34.05
2022-11-05T22:36:32.163Z,32.55
2022-11-05T22:38:58.773Z,35.72
2022-11-05T22:41:25.433Z,32.67
2022-11-05T22:43:52.076Z,31.65
2022-11-05T22:46:22.341Z,31.45
2022-11-05T22:48:49.563Z,37.70
2022-11-05T22:51:22.745Z,32.42
2022-11-05T22:53:49.981Z,38.13
2022-11-05T22:56:20.602Z,36.95
2022-11-05T22:58:48.205Z,33.95
2022-11-05T23:01:15.911Z,39.83
2022-11-05T23:03:44.404Z,38.47
2022-11-05T23:06:49.737Z,37.40
2022-11-05T23:09:37.231Z,35.33
2022-11-05T23:12:06.801Z,32.88
2022-11-05T23:14:35.589Z,37.85
2022-11-05T23:17:21.307Z,38.17
2022-11-05T23:20:06.217Z,37.53
2022-11-05T23:22:51.361Z,45.10
2022-11-05T23:25:20.693Z,42.15
2022-11-05T23:27:49.900Z,40.97
2022-11-05T23:30:20.072Z,36.28
2022-11-05T23:32:47.737Z,36.72
2022-11-05T23:35:14.475Z,42.13
2022-11-05T23:37:59.822Z,41.47
2022-11-05T23:40:29.126Z,41.35
2022-11-05T23:43:14.616Z,41.75
2022-11-05T23:46:02.921Z,43.00
2022-11-05T23:48:36.115Z,38.20
2022-11-05T23:51:10.447Z,36.65
2022-11-05T23:53:40.338Z,39.97
2022-11-05T23:56:13.670Z,37.10
2022-11-05T23:58:41.353Z,44.10
